My Profile
  1. Member Settings
  2. My Devices
  3. Sign Out
        More Settings
      Elev 873 ft, 42.183 °N 88.324 °W

      Lake in the Hills, IL

      Summary

      Temperature (°F)MaxAverageMin
      Max Temperature8875.3864
      Avg Temperature73.6564.3554.93
      Min Temperature6654.7545
      Precipitation (in)MaxAverageMinSum
      Precipitation1.530.1906.22
      Dew Point (°F)MaxAverageMin
      Dew Point61.6349.6434.13
      Wind (mph)MaxAverageMin
      Wind2815.388
      Gust Wind4421.389
      Sea Level Pressure (in)MaxAverageMin
      Sea Level Pressure29.3729.0228.78

      Daily Observations

      DateTemp High/LowDew Pt High/LowHumidityWindMax WindWind GustPressurePrecip.Condition
      5/1/2024 74 °F / 57 °F 58 °F / 33 °F 51 % 17 mph - 29.03 in 0 in
      5/2/2024 76 °F / 54 °F 64 °F / 39 °F 64 % 16 mph - 29.05 in 0.69 in
      5/3/2024 71 °F / 52 °F 62 °F / 28 °F 62 % 12 mph - 29.14 in 0.15 in
      5/4/2024 80 °F / 49 °F 62 °F / 37 °F 69 % 21 mph - 29.08 in 1.04 in
      5/5/2024 66 °F / 49 °F 51 °F / 33 °F 65 % 9 mph - 29.19 in 0 in
      5/6/2024 70 °F / 48 °F 55 °F / 39 °F 63 % 12 mph - 29.09 in 0 in
      5/7/2024 76 °F / 58 °F 65 °F / 48 °F 71 % 21 mph - 28.75 in 0.68 in
      5/8/2024 78 °F / 49 °F 49 °F / 36 °F 48 % 12 mph - 28.85 in 0 in
      5/9/2024 60 °F / 49 °F 54 °F / 46 °F 86 % 13 mph - 28.94 in 0.84 in
      5/10/2024 67 °F / 46 °F 51 °F / 44 °F 70 % 17 mph - 29.02 in 0.09 in
      5/11/2024 69 °F / 49 °F 52 °F / 38 °F 64 % 20 mph - 28.96 in 0.07 in
      5/12/2024 84 °F / 48 °F 50 °F / 44 °F 53 % 15 mph - 28.97 in 0 in
      5/13/2024 82 °F / 61 °F 62 °F / 48 °F 63 % 17 mph - 28.93 in 0.18 in
      5/14/2024 61 °F / 51 °F 60 °F / 40 °F 81 % 13 mph - 28.96 in 0.07 in
      5/15/2024 69 °F / 51 °F 46 °F / 36 °F 56 % 12 mph - 29 in 0 in
      5/16/2024 74 °F / 50 °F 63 °F / 42 °F 72 % 15 mph - 28.96 in 0.07 in
      5/17/2024 80 °F / 57 °F 61 °F / 46 °F 67 % 9 mph - 28.94 in 0 in
      5/18/2024 85 °F / 56 °F 65 °F / 53 °F 63 % 15 mph - 29 in 0 in
      5/19/2024 76 °F / 62 °F 60 °F / 41 °F 49 % 10 mph - 29.11 in 0 in
      5/20/2024 82 °F / 60 °F 69 °F / 41 °F 59 % 22 mph - 29.01 in 0.28 in
      5/21/2024 88 °F / 61 °F 67 °F / 59 °F 65 % 28 mph - 28.88 in 0 in
      5/22/2024 80 °F / 60 °F 64 °F / 40 °F 53 % 28 mph - 28.91 in 0 in
      5/23/2024 80 °F / 55 °F 50 °F / 42 °F 47 % 10 mph - 29.06 in 0 in
      5/24/2024 75 °F / 61 °F 66 °F / 46 °F 71 % 18 mph - 28.94 in 0.03 in
      5/25/2024 76 °F / 55 °F 63 °F / 35 °F 53 % 13 mph - 29 in 0 in
      5/26/2024 73 °F / 56 °F 65 °F / 34 °F 71 % 14 mph - 28.82 in 1.53 in
      5/27/2024 73 °F / 57 °F 56 °F / 52 °F 72 % 18 mph - 28.84 in 0 in
      5/28/2024 71 °F / 55 °F 57 °F / 50 °F 78 % 22 mph - 29.09 in 0.5 in
      5/29/2024 69 °F / 51 °F 54 °F / 33 °F 66 % 10 mph - 29.3 in 0 in
      5/30/2024 70 °F / 45 °F 41 °F / 22 °F 44 % 10 mph - 29.36 in 0 in
      5/31/2024 78 °F / 49 °F 51 °F / 40 °F 53 % 13 mph - 29.32 in 0 in
      essentialaccessibility.com
      We recognize our responsibility to use data and technology for good. We may use or share your data with our data vendors. Take control of your data.
      Glossary